Time;durP1;ratioP1;P1;durP2;ratioP2;P2;SDS_P1;SDS_P2;PMS_P1;PMS_P2;Temp;Humidity;BMP_temperature;BMP_pressure;BME280_temperature;BME280_humidity;BME280_pressure;Samples;Min_cycle;Max_cycle;Signal;HPM_P1;HPM_P2
2022/06/30 00:02:21;;;;;;;0.85;0.68;;;;;;;16.73;100.00;101143.28;10451673;28;20075;-75
2022/06/30 00:07:23;;;;;;;3.13;0.85;;;;;;;16.65;100.00;101139.75;10443768;28;20107;-76
2022/06/30 00:19:24;;;;;;;0.63;0.55;;;;;;;16.58;100.00;101138.00;10460938;28;20033;-75
2022/06/30 00:24:25;;;;;;;5.93;1.27;;;;;;;16.11;100.00;101136.88;10461008;28;20037;-75
2022/06/30 00:29:28;;;;;;;0.73;0.68;;;;;;;16.38;100.00;101136.19;10442231;28;20077;-75
2022/06/30 00:34:29;;;;;;;0.50;0.45;;;;;;;16.46;100.00;101129.28;10441994;28;20049;-76
2022/06/30 00:39:31;;;;;;;0.95;0.75;;;;;;;16.29;100.00;101118.81;10458488;28;20128;-76
2022/06/30 00:44:33;;;;;;;1.27;0.98;;;;;;;16.40;100.00;101117.97;10441624;28;20052;-76
2022/06/30 00:49:34;;;;;;;1.10;0.88;;;;;;;16.29;100.00;101110.13;10459896;28;20056;-75
2022/06/30 00:54:41;;;;;;;1.05;0.65;;;;;;;16.27;100.00;101114.47;10441342;28;20045;-75
2022/06/30 00:59:45;;;;;;;1.15;0.75;;;;;;;16.44;100.00;101105.00;10442459;28;20099;-75
2022/06/30 01:04:49;;;;;;;1.48;0.70;;;;;;;16.44;100.00;101099.78;10458420;28;20075;-75
2022/06/30 01:15:21;;;;;;;3.25;1.42;;;;;;;16.39;100.00;101091.13;10458317;28;20049;-75
2022/06/30 01:20:29;;;;;;;2.00;0.68;;;;;;;16.63;100.00;101103.34;10412833;28;20558;-75
2022/06/30 01:25:31;;;;;;;0.70;0.60;;;;;;;16.36;100.00;101098.88;10416553;28;20482;-76
2022/06/30 01:30:32;;;;;;;1.70;1.08;;;;;;;15.98;100.00;101099.53;10416479;28;20485;-76
2022/06/30 01:35:34;;;;;;;1.05;0.90;;;;;;;15.82;100.00;101104.59;10452635;28;20044;-75
2022/06/30 01:40:39;;;;;;;0.73;0.40;;;;;;;15.68;100.00;101106.19;10457758;28;20045;-75
2022/06/30 01:45:42;;;;;;;0.88;0.80;;;;;;;16.08;100.00;101096.13;10457147;28;20080;-75
2022/06/30 01:50:43;;;;;;;0.98;0.85;;;;;;;16.30;100.00;101085.88;10439293;28;20076;-75
2022/06/30 01:55:45;;;;;;;1.65;0.98;;;;;;;16.30;100.00;101091.94;10457528;28;20041;-75
2022/06/30 02:00:47;;;;;;;2.72;1.17;;;;;;;16.59;100.00;101083.41;10439251;28;20052;-75
2022/06/30 02:05:49;;;;;;;2.83;1.65;;;;;;;16.91;100.00;101079.16;10437096;28;20054;-75
2022/06/30 02:10:51;;;;;;;1.90;0.88;;;;;;;16.58;100.00;101084.25;10448306;28;20059;-75
2022/06/30 02:15:53;;;;;;;1.33;0.90;;;;;;;16.41;100.00;101089.41;10456467;28;20037;-75
2022/06/30 02:20:54;;;;;;;1.48;0.90;;;;;;;16.08;100.00;101085.75;10456394;28;20060;-75
2022/06/30 02:25:56;;;;;;;1.33;0.98;;;;;;;16.07;100.00;101089.19;10456900;28;20048;-75
2022/06/30 02:30:58;;;;;;;0.75;0.70;;;;;;;16.01;100.00;101095.22;10438481;28;20055;-76
2022/06/30 02:35:59;;;;;;;0.43;0.35;;;;;;;15.89;100.00;101104.69;10438503;28;20091;-75
2022/06/30 02:41:01;;;;;;;0.77;0.57;;;;;;;15.84;100.00;101102.06;10455755;28;20573;-76
2022/06/30 02:46:02;;;;;;;1.15;0.57;;;;;;;15.83;100.00;101089.91;10438102;28;20091;-75
2022/06/30 02:51:04;;;;;;;0.95;0.80;;;;;;;15.65;100.00;101101.00;10431876;28;20050;-76
2022/06/30 02:56:06;;;;;;;1.02;0.68;;;;;;;15.53;100.00;101109.56;10396890;28;20045;-75
2022/06/30 03:01:07;;;;;;;1.42;0.65;;;;;;;15.46;100.00;101108.63;10396667;28;20056;-75
2022/06/30 03:06:09;;;;;;;0.80;0.50;;;;;;;15.41;100.00;101109.47;10439069;28;20083;-75
2022/06/30 03:11:17;;;;;;;1.15;0.68;;;;;;;15.33;100.00;101110.25;10463045;28;20460;-75
2022/06/30 03:16:38;;;;;;;0.75;0.35;;;;;;;15.22;100.00;101107.56;10438377;28;20047;-77
2022/06/30 03:21:40;;;;;;;0.20;0.20;;;;;;;15.24;100.00;101115.34;10421482;28;20128;-75
2022/06/30 03:26:44;;;;;;;1.10;0.80;;;;;;;14.91;100.00;101117.59;10421130;28;20053;-75
2022/06/30 03:31:45;;;;;;;3.35;0.75;;;;;;;14.86;100.00;101115.81;10425890;28;20049;-75
2022/06/30 03:36:47;;;;;;;1.88;0.68;;;;;;;14.96;100.00;101120.25;10460844;28;20095;-75
2022/06/30 03:41:49;;;;;;;3.75;1.40;;;;;;;15.02;100.00;101109.94;10460485;28;20079;-76
2022/06/30 03:46:50;;;;;;;1.83;0.98;;;;;;;14.88;100.00;101109.78;10461656;28;20492;-75
2022/06/30 03:51:57;;;;;;;2.05;1.58;;;;;;;15.17;100.00;101114.41;10444403;28;20041;-76
2022/06/30 03:56:58;;;;;;;3.33;1.58;;;;;;;15.19;100.00;101102.31;10455183;28;20139;-75
2022/06/30 04:02:00;;;;;;;1.90;1.42;;;;;;;15.50;100.00;101110.41;10402610;28;20073;-76
2022/06/30 04:07:02;;;;;;;1.52;0.95;;;;;;;15.46;100.00;101110.38;10418501;28;20057;-75
2022/06/30 04:12:04;;;;;;;2.55;1.30;;;;;;;15.54;100.00;101106.97;10420139;28;20493;-75
2022/06/30 04:17:06;;;;;;;1.67;1.10;;;;;;;15.86;100.00;101109.00;10420117;28;20049;-76
2022/06/30 04:22:08;;;;;;;5.28;1.00;;;;;;;16.07;100.00;101104.78;10442329;28;20053;-76
2022/06/30 04:27:09;;;;;;;1.65;1.27;;;;;;;15.91;100.00;101102.94;10442619;28;20055;-76
2022/06/30 04:37:31;;;;;;;3.05;1.50;;;;;;;16.44;100.00;101089.41;10418579;28;20041;-75
2022/06/30 04:42:32;;;;;;;1.75;1.60;;;;;;;16.80;100.00;101090.41;10427864;28;20480;-75
2022/06/30 04:47:35;;;;;;;2.85;1.42;;;;;;;17.23;100.00;101086.19;10441715;28;20053;-75
2022/06/30 04:52:37;;;;;;;2.25;1.65;;;;;;;17.63;100.00;101067.97;10422596;28;20041;-75
2022/06/30 04:57:39;;;;;;;2.70;1.77;;;;;;;17.88;100.00;101070.56;10400012;28;20571;-75
2022/06/30 05:02:40;;;;;;;2.83;1.88;;;;;;;18.17;100.00;101059.22;10437636;28;20048;-75
2022/06/30 05:07:42;;;;;;;2.13;1.27;;;;;;;18.48;100.00;101059.09;10440868;28;20077;-75
2022/06/30 05:12:44;;;;;;;2.28;1.67;;;;;;;18.61;100.00;101050.34;10420147;28;20374;-76
2022/06/30 05:17:45;;;;;;;1.42;0.98;;;;;;;18.86;100.00;101048.44;10430685;28;20075;-76
2022/06/30 05:22:47;;;;;;;2.45;1.60;;;;;;;19.18;100.00;101054.34;10456838;28;20045;-76
2022/06/30 05:27:53;;;;;;;2.75;1.48;;;;;;;19.39;100.00;101052.47;10430252;28;20042;-76
2022/06/30 05:32:54;;;;;;;3.03;2.17;;;;;;;19.56;100.00;101047.94;10439862;28;20103;-77
2022/06/30 05:37:56;;;;;;;2.15;1.58;;;;;;;19.74;100.00;101046.06;10440027;28;20051;-77
2022/06/30 05:42:58;;;;;;;3.05;2.00;;;;;;;19.97;100.00;101036.25;10416696;28;20059;-76
2022/06/30 05:48:00;;;;;;;5.97;2.30;;;;;;;20.16;100.00;101051.72;10440045;28;20190;-75
2022/06/30 05:53:01;;;;;;;2.33;1.65;;;;;;;20.38;100.00;101052.34;10455387;28;20037;-76
2022/06/30 05:58:04;;;;;;;3.15;1.90;;;;;;;20.46;100.00;101054.84;10456977;28;20060;-76
2022/06/30 06:03:05;;;;;;;2.28;1.30;;;;;;;20.73;100.00;101048.41;10456457;28;20102;-76
2022/06/30 06:08:10;;;;;;;2.38;2.00;;;;;;;20.91;100.00;101039.41;10418462;28;20053;-76
2022/06/30 06:13:14;;;;;;;3.97;1.60;;;;;;;21.13;100.00;101036.47;10414243;28;20077;-75
2022/06/30 06:18:16;;;;;;;3.15;1.88;;;;;;;21.29;100.00;101030.97;10438600;28;20407;-76
2022/06/30 06:30:17;;;;;;;3.67;2.15;;;;;;;21.54;100.00;101040.16;10452794;28;20029;-76
2022/06/30 06:35:18;;;;;;;5.47;2.67;;;;;;;21.85;100.00;101051.88;10438534;28;20048;-76
2022/06/30 06:40:20;;;;;;;3.95;2.17;;;;;;;21.93;100.00;101047.34;10445727;28;20549;-76
2022/06/30 06:45:22;;;;;;;1.58;1.33;;;;;;;22.15;97.76;101046.94;10464216;28;20037;-76
2022/06/30 06:50:24;;;;;;;4.63;2.55;;;;;;;22.74;94.70;101043.97;10446554;28;20095;-76
2022/06/30 06:55:27;;;;;;;2.30;1.45;;;;;;;22.89;92.63;101044.50;10463721;28;20102;-76
2022/06/30 07:00:30;;;;;;;2.30;1.63;;;;;;;23.79;91.96;101047.56;10460328;28;20049;-76
2022/06/30 07:05:32;;;;;;;3.03;2.22;;;;;;;23.68;83.23;101048.69;10451618;28;20068;-76
2022/06/30 07:10:34;;;;;;;2.33;1.63;;;;;;;24.17;85.12;101043.00;10463175;28;20056;-75
2022/06/30 07:15:37;;;;;;;2.00;1.63;;;;;;;24.28;82.44;101051.47;10437109;28;20100;-76
2022/06/30 07:20:40;;;;;;;1.98;1.55;;;;;;;24.95;81.25;101060.88;10429001;28;20044;-76
2022/06/30 07:25:50;;;;;;;3.05;2.13;;;;;;;25.42;78.65;101038.31;10461449;28;20045;-76
2022/06/30 07:30:52;;;;;;;5.07;1.83;;;;;;;25.62;75.06;101046.38;10460072;28;20072;-76
2022/06/30 07:35:54;;;;;;;2.00;1.20;;;;;;;25.95;71.16;101056.63;10440624;28;20178;-77
2022/06/30 07:40:55;;;;;;;3.03;1.67;;;;;;;26.17;70.21;101055.03;10436289;28;20048;-76
2022/06/30 07:45:57;;;;;;;3.35;2.67;;;;;;;26.15;64.52;101073.59;10426579;28;20037;-75
2022/06/30 07:50:59;;;;;;;3.85;1.10;;;;;;;26.62;64.50;101069.22;10442421;28;20033;-77
2022/06/30 07:56:01;;;;;;;3.20;1.35;;;;;;;27.40;67.14;101067.84;10433617;28;20041;-77
2022/06/30 08:01:02;;;;;;;1.40;0.88;;;;;;;27.89;63.81;101064.03;10442550;28;20032;-77
2022/06/30 08:06:04;;;;;;;2.05;0.50;;;;;;;27.17;58.96;101072.31;10447319;28;20543;-76
2022/06/30 08:11:08;;;;;;;1.40;0.75;;;;;;;27.04;63.30;101076.38;10454451;28;20051;-75
2022/06/30 08:16:11;;;;;;;1.50;1.20;;;;;;;27.39;57.94;101081.97;10455007;28;20045;-77
2022/06/30 08:21:12;;;;;;;0.75;0.75;;;;;;;27.60;58.02;101079.38;10455223;28;20051;-78
2022/06/30 08:26:14;;;;;;;1.15;0.38;;;;;;;28.16;53.81;101068.13;10445327;28;20049;-77
2022/06/30 08:31:16;;;;;;;0.90;0.57;;;;;;;27.85;56.96;101063.31;10460035;28;20391;-77
2022/06/30 08:36:18;;;;;;;0.80;0.20;;;;;;;28.30;51.40;101063.97;10463517;28;20069;-75
2022/06/30 08:46:40;;;;;;;0.82;0.63;;;;;;;28.21;53.28;101074.97;10451352;28;20037;-77
2022/06/30 08:51:45;;;;;;;1.35;1.00;;;;;;;28.86;50.36;101087.88;10448109;28;20056;-77
2022/06/30 08:56:46;;;;;;;0.73;0.63;;;;;;;28.62;48.60;101082.81;10433468;28;20041;-78
2022/06/30 09:01:49;;;;;;;0.77;0.60;;;;;;;29.34;45.96;101089.09;10448827;28;20041;-77
2022/06/30 09:06:51;;;;;;;0.28;0.20;;;;;;;28.88;45.14;101088.66;10431533;28;20430;-77
2022/06/30 09:11:56;;;;;;;0.45;0.30;;;;;;;28.77;47.28;101083.88;10442873;28;20079;-77
2022/06/30 09:16:59;;;;;;;0.30;0.15;;;;;;;29.03;46.29;101087.09;10428082;28;20037;-77
2022/06/30 09:22:10;;;;;;;1.95;0.60;;;;;;;29.67;46.64;101084.78;10424393;28;20048;-78
2022/06/30 09:27:17;;;;;;;0.63;0.60;;;;;;;29.39;45.75;101081.75;10430592;28;20045;-77
2022/06/30 09:32:19;;;;;;;0.90;0.57;;;;;;;29.02;50.17;101078.25;10435546;28;20103;-77
2022/06/30 09:37:22;;;;;;;0.52;0.52;;;;;;;29.65;48.61;101079.56;10439136;28;20044;-77
2022/06/30 09:42:41;;;;;;;0.77;0.68;;;;;;;29.31;49.50;101078.63;10418571;28;20065;-77
2022/06/30 09:47:58;;;;;;;0.73;0.60;;;;;;;29.09;50.24;101078.81;10433894;28;20052;-76
2022/06/30 09:53:12;;;;;;;0.47;0.47;;;;;;;29.33;44.87;101084.72;10447169;28;20048;-78
2022/06/30 09:58:30;;;;;;;1.40;1.00;;;;;;;29.52;43.02;101076.69;10426631;28;20041;-77
2022/06/30 10:03:32;;;;;;;1.57;0.37;;;;;;;29.81;44.16;101068.16;10446021;28;20487;-77
2022/06/30 10:08:34;;;;;;;0.60;0.50;;;;;;;29.23;42.97;101086.06;10451292;28;20045;-76
2022/06/30 10:13:39;;;;;;;2.38;1.05;;;;;;;29.46;43.41;101081.44;10449893;28;20059;-77
2022/06/30 10:18:44;;;;;;;1.45;1.05;;;;;;;29.80;43.07;101069.09;10439642;28;20049;-77
2022/06/30 10:23:46;;;;;;;0.77;0.60;;;;;;;30.05;43.83;101061.53;10449279;28;20049;-77
2022/06/30 10:28:47;;;;;;;0.55;0.45;;;;;;;30.17;45.18;101072.47;10434266;28;20049;-78
2022/06/30 10:34:15;;;;;;;0.40;0.40;;;;;;;29.42;44.97;101071.00;10453986;28;20063;-77
2022/06/30 10:40:08;;;;;;;0.85;0.52;;;;;;;29.53;48.69;101066.91;10442546;28;20063;-77
2022/06/30 10:45:28;;;;;;;0.88;0.82;;;;;;;28.97;43.90;101069.66;10431269;28;20088;-76
2022/06/30 10:50:41;;;;;;;0.85;0.47;;;;;;;29.55;43.76;101071.22;10445591;28;20492;-77
2022/06/30 10:55:50;;;;;;;0.93;0.73;;;;;;;29.71;45.47;101063.31;10421549;28;20142;-76
2022/06/30 11:01:02;;;;;;;0.30;0.25;;;;;;;29.53;44.07;101061.59;10447852;28;20041;-77
2022/06/30 11:06:07;;;;;;;0.90;0.50;;;;;;;29.52;50.05;101057.25;10421876;28;20033;-77
2022/06/30 11:11:21;;;;;;;1.20;0.30;;;;;;;29.38;41.42;101064.09;10439744;28;20508;-76
2022/06/30 11:16:25;;;;;;;1.45;0.45;;;;;;;29.09;41.40;101069.06;10442563;28;20131;-78
2022/06/30 11:21:30;;;;;;;0.10;0.10;;;;;;;29.19;38.18;101063.28;10440691;28;20044;-78
2022/06/30 11:32:02;;;;;;;0.63;0.43;;;;;;;29.64;42.17;101040.69;10437186;28;20053;-77
2022/06/30 11:37:04;;;;;;;0.20;0.20;;;;;;;29.44;44.87;101042.59;10455353;28;20060;-77
2022/06/30 11:42:06;;;;;;;0.63;0.38;;;;;;;29.51;40.63;101050.22;10433794;28;20068;-77
2022/06/30 11:47:16;;;;;;;0.60;0.60;;;;;;;29.02;44.06;101051.72;10422618;28;20044;-78
2022/06/30 11:52:20;;;;;;;0.30;0.30;;;;;;;28.41;48.16;101043.13;10426175;28;20052;-78
2022/06/30 11:57:33;;;;;;;0.00;0.00;;;;;;;29.19;41.13;101050.03;10433090;28;20802;-78
2022/06/30 12:02:36;;;;;;;0.30;0.25;;;;;;;29.24;41.53;101040.03;10432673;28;20067;-78
2022/06/30 12:07:39;;;;;;;4.18;0.43;;;;;;;30.02;41.78;101037.81;10431287;28;20040;-78
2022/06/30 12:12:43;;;;;;;0.03;0.03;;;;;;;29.72;41.63;101038.47;10448868;28;20037;-78
2022/06/30 12:17:52;;;;;;;0.08;0.08;;;;;;;29.97;40.73;101036.34;10453496;28;20385;-77
2022/06/30 12:22:55;;;;;;;0.00;0.00;;;;;;;28.88;38.86;101043.59;10445656;28;20073;-78
2022/06/30 12:27:57;;;;;;;0.47;0.38;;;;;;;28.94;40.48;101030.03;10445229;28;20079;-78
2022/06/30 12:33:03;;;;;;;0.10;0.10;;;;;;;29.80;36.50;101031.91;10455003;28;20098;-78
2022/06/30 12:38:20;;;;;;;0.05;0.05;;;;;;;30.33;37.96;101012.22;10437617;28;20431;-78
2022/06/30 12:43:22;;;;;;;0.63;0.20;;;;;;;29.62;36.88;101013.34;10419906;28;20059;-78
2022/06/30 12:48:43;;;;;;;0.70;0.55;;;;;;;29.87;38.81;101001.44;10441370;28;20045;-78
2022/06/30 12:53:46;;;;;;;1.10;0.50;;;;;;;29.82;36.35;101003.47;10435135;28;20435;-78
2022/06/30 12:58:51;;;;;;;0.38;0.25;;;;;;;29.98;41.68;100988.44;10435579;28;20098;-77
2022/06/30 13:04:01;;;;;;;0.30;0.30;;;;;;;30.48;40.58;100980.41;10421960;28;20041;-77
2022/06/30 13:09:09;;;;;;;0.00;0.00;;;;;;;30.06;40.64;100978.25;10470813;28;20033;-77
2022/06/30 13:14:10;;;;;;;0.55;0.22;;;;;;;29.95;37.48;100970.03;10473870;28;20354;-78
2022/06/30 13:19:13;;;;;;;0.10;0.10;;;;;;;29.87;39.52;100959.78;10429677;28;20071;-77
2022/06/30 13:24:17;;;;;;;0.43;0.20;;;;;;;29.99;34.55;100952.97;10433755;28;20119;-77
2022/06/30 13:29:20;;;;;;;0.25;0.13;;;;;;;30.18;38.51;100930.72;10428349;28;20080;-76
2022/06/30 13:34:22;;;;;;;0.80;0.13;;;;;;;30.03;35.35;100935.94;10426090;28;20040;-77
2022/06/30 13:39:24;;;;;;;0.93;0.43;;;;;;;29.76;35.68;100925.84;10426533;28;20164;-77
2022/06/30 13:44:26;;;;;;;0.00;0.00;;;;;;;29.85;32.89;100916.53;10426443;28;20048;-77
2022/06/30 13:49:27;;;;;;;0.08;0.08;;;;;;;30.19;35.25;100905.84;10438128;28;20152;-77
2022/06/30 13:54:29;;;;;;;0.03;0.03;;;;;;;29.52;34.42;100898.00;10406030;28;20049;-77
2022/06/30 13:59:31;;;;;;;0.10;0.10;;;;;;;29.49;36.31;100901.66;10423908;28;20538;-78
2022/06/30 14:04:32;;;;;;;0.00;0.00;;;;;;;30.17;35.00;100891.78;10425529;28;20484;-77
2022/06/30 14:09:36;;;;;;;0.00;0.00;;;;;;;29.79;35.31;100881.50;10426426;28;20041;-77
2022/06/30 14:14:37;;;;;;;0.43;0.30;;;;;;;29.93;32.94;100889.56;10450210;28;20102;-77
2022/06/30 14:19:39;;;;;;;0.10;0.10;;;;;;;29.63;32.71;100892.97;10447578;28;20032;-78
2022/06/30 14:24:45;;;;;;;0.45;0.20;;;;;;;29.27;31.10;100888.66;10451158;28;20032;-77
2022/06/30 14:29:46;;;;;;;1.27;0.30;;;;;;;29.93;33.74;100884.25;10446268;28;20045;-77
2022/06/30 14:34:51;;;;;;;0.30;0.30;;;;;;;29.24;42.07;100883.50;10435884;28;20052;-77
2022/06/30 14:39:54;;;;;;;0.57;0.30;;;;;;;29.55;38.25;100874.81;10429558;28;20040;-77
2022/06/30 14:44:56;;;;;;;0.00;0.00;;;;;;;29.93;39.78;100868.31;10451996;28;20053;-77
2022/06/30 14:49:57;;;;;;;0.45;0.25;;;;;;;28.92;40.15;100876.31;10424156;28;20048;-77
2022/06/30 14:54:59;;;;;;;0.20;0.13;;;;;;;29.26;43.29;100863.06;10442371;28;20044;-77
2022/06/30 15:00:08;;;;;;;0.30;0.30;;;;;;;29.15;47.86;100866.28;10448187;28;20040;-76
2022/06/30 15:05:11;;;;;;;0.28;0.10;;;;;;;29.25;45.76;100850.75;10445171;28;20045;-77
2022/06/30 15:10:13;;;;;;;0.20;0.20;;;;;;;29.25;48.46;100845.44;10430155;28;20048;-77
2022/06/30 15:15:15;;;;;;;0.10;0.10;;;;;;;29.27;46.52;100840.91;10461024;28;20098;-77
2022/06/30 15:20:18;;;;;;;0.20;0.20;;;;;;;29.23;47.29;100836.69;10449727;28;20055;-77
2022/06/30 15:25:20;;;;;;;0.98;0.60;;;;;;;28.81;52.58;100821.19;10442469;28;20110;-76
2022/06/30 15:30:22;;;;;;;0.40;0.40;;;;;;;28.40;53.41;100821.50;10438461;28;20488;-76
2022/06/30 15:35:24;;;;;;;1.33;0.52;;;;;;;28.38;54.80;100807.47;10455858;28;20049;-76
2022/06/30 15:40:27;;;;;;;0.73;0.40;;;;;;;28.45;52.25;100806.22;10457517;28;20048;-77
2022/06/30 15:45:29;;;;;;;0.68;0.40;;;;;;;28.07;50.13;100797.56;10456603;28;20099;-76
2022/06/30 15:50:31;;;;;;;0.70;0.50;;;;;;;28.45;52.22;100792.97;10457458;28;20407;-76
2022/06/30 15:55:33;;;;;;;1.20;0.47;;;;;;;28.30;48.81;100777.88;10439542;28;20029;-77
2022/06/30 16:00:35;;;;;;;0.73;0.35;;;;;;;28.56;52.61;100775.69;10458302;28;20068;-77
2022/06/30 16:05:36;;;;;;;0.13;0.13;;;;;;;28.49;50.08;100761.88;10457325;28;20045;-77
2022/06/30 16:10:38;;;;;;;4.57;0.55;;;;;;;27.85;61.55;100745.66;10453918;28;20048;-76
2022/06/30 16:15:40;;;;;;;0.85;0.55;;;;;;;27.53;62.59;100748.91;10453500;28;20076;-76
2022/06/30 16:20:49;;;;;;;0.30;0.30;;;;;;;27.18;61.97;100759.34;10456670;28;20076;-74
2022/06/30 16:25:51;;;;;;;1.17;0.47;;;;;;;27.13;62.17;100758.69;10440906;28;20045;-75
2022/06/30 16:30:53;;;;;;;0.28;0.20;;;;;;;26.80;63.93;100755.78;10453464;28;20041;-75
2022/06/30 16:35:56;;;;;;;0.38;0.32;;;;;;;26.50;63.78;100738.53;10434536;28;20072;-75
2022/06/30 16:40:58;;;;;;;1.15;0.93;;;;;;;26.25;64.70;100736.94;10454498;28;20075;-75
2022/06/30 16:46:00;;;;;;;0.50;0.28;;;;;;;25.80;64.40;100735.28;10465535;28;20041;-75
2022/06/30 16:51:02;;;;;;;0.47;0.38;;;;;;;25.39;65.73;100737.78;10455142;28;20601;-76
2022/06/30 16:56:04;;;;;;;0.10;0.10;;;;;;;25.41;66.15;100743.84;10472525;28;20033;-74
2022/06/30 17:01:10;;;;;;;0.28;0.20;;;;;;;25.08;67.45;100736.28;10464600;28;20052;-74
2022/06/30 17:06:13;;;;;;;3.67;0.50;;;;;;;24.92;68.87;100736.00;10455126;28;20036;-74
2022/06/30 17:11:15;;;;;;;0.63;0.57;;;;;;;24.49;71.14;100741.88;10452476;28;20408;-74
2022/06/30 17:16:17;;;;;;;1.00;0.47;;;;;;;24.39;71.99;100746.56;10447935;28;20418;-74
2022/06/30 17:21:19;;;;;;;0.32;0.28;;;;;;;24.11;72.72;100751.03;10439867;28;20120;-74
2022/06/30 17:26:22;;;;;;;0.10;0.10;;;;;;;24.07;72.26;100740.63;10452177;28;20041;-74
2022/06/30 17:31:24;;;;;;;0.90;0.57;;;;;;;23.94;71.90;100741.09;10441351;28;20040;-73
2022/06/30 17:36:29;;;;;;;0.50;0.28;;;;;;;23.72;72.60;100745.22;10444080;28;20465;-74
2022/06/30 17:41:31;;;;;;;1.15;0.63;;;;;;;23.58;73.25;100752.69;10454888;28;20159;-73
2022/06/30 17:46:39;;;;;;;0.55;0.40;;;;;;;23.12;76.03;100833.72;10455627;28;20049;-75
2022/06/30 17:51:50;;;;;;;1.15;0.30;;;;;;;22.07;87.27;101026.09;10453897;28;20048;-73
2022/06/30 17:56:51;;;;;;;0.10;0.10;;;;;;;17.38;100.00;101013.31;10452900;28;20044;-74
2022/06/30 18:01:54;;;;;;;0.00;0.00;;;;;;;16.11;100.00;101097.88;10436125;28;20059;-73
2022/06/30 18:12:16;;;;;;;3.80;0.68;;;;;;;15.97;100.00;101031.13;10453147;28;20041;-76
2022/06/30 18:17:18;;;;;;;0.57;0.25;;;;;;;15.90;100.00;101033.69;10444280;28;20428;-78
2022/06/30 18:22:19;;;;;;;0.57;0.15;;;;;;;16.15;100.00;101090.13;10453933;28;20052;-76
2022/06/30 18:27:24;;;;;;;0.00;0.00;;;;;;;16.24;100.00;101138.69;10453682;28;20037;-76
2022/06/30 18:32:28;;;;;;;0.30;0.22;;;;;;;16.02;100.00;101114.31;10454857;28;20049;-76
2022/06/30 18:37:30;;;;;;;0.38;0.38;;;;;;;15.90;100.00;101106.44;10444091;28;20056;-76
2022/06/30 18:42:32;;;;;;;0.20;0.20;;;;;;;15.71;100.00;101090.66;10452979;28;20044;-76
2022/06/30 18:47:37;;;;;;;0.43;0.10;;;;;;;15.62;100.00;101121.75;10455340;28;20030;-77
2022/06/30 18:52:40;;;;;;;0.73;0.40;;;;;;;15.35;100.00;101149.19;10460225;28;20049;-77
2022/06/30 18:57:41;;;;;;;0.45;0.22;;;;;;;15.00;100.00;101173.91;10461221;28;20103;-76
2022/06/30 19:02:43;;;;;;;0.38;0.25;;;;;;;14.94;100.00;101198.91;10452787;28;20087;-76
2022/06/30 19:07:45;;;;;;;0.10;0.10;;;;;;;14.96;100.00;101192.91;10441863;28;20053;-76
2022/06/30 19:12:47;;;;;;;0.70;0.60;;;;;;;14.88;100.00;101208.34;10459125;28;20053;-76
2022/06/30 19:17:49;;;;;;;0.10;0.10;;;;;;;14.88;100.00;101226.50;10441886;28;20059;-76
2022/06/30 19:22:51;;;;;;;0.45;0.35;;;;;;;14.75;100.00;101230.66;10441014;28;20412;-76
2022/06/30 19:28:08;;;;;;;0.10;0.10;;;;;;;14.89;100.00;101255.94;10455027;28;20045;-76
2022/06/30 19:33:10;;;;;;;0.45;0.40;;;;;;;15.08;100.00;101259.63;10446268;28;20048;-76
2022/06/30 19:38:12;;;;;;;0.40;0.35;;;;;;;15.06;100.00;101285.56;10459080;28;20052;-76
2022/06/30 19:43:13;;;;;;;0.30;0.30;;;;;;;15.04;100.00;101295.03;10458706;28;20450;-76
2022/06/30 19:48:16;;;;;;;0.47;0.45;;;;;;;14.94;100.00;101331.19;10436976;28;20051;-76
2022/06/30 19:53:18;;;;;;;0.40;0.20;;;;;;;14.77;100.00;101256.63;10458616;28;20045;-76
2022/06/30 19:58:19;;;;;;;0.15;0.15;;;;;;;14.71;100.00;101275.56;10450346;28;20052;-77
2022/06/30 20:14:07;;;;;;;0.00;0.00;;;;;;;14.42;100.00;101304.47;10454667;28;20758;-76
2022/06/30 20:19:09;;;;;;;1.30;0.28;;;;;;;14.38;100.00;101315.63;10457394;28;20045;-76
2022/06/30 20:24:10;;;;;;;0.20;0.20;;;;;;;14.44;100.00;101322.63;10457340;28;20059;-76
2022/06/30 20:29:12;;;;;;;0.85;0.25;;;;;;;14.41;100.00;101301.81;10441228;28;20052;-76
2022/06/30 20:34:14;;;;;;;8.48;0.25;;;;;;;14.35;100.00;101309.50;10449334;28;20051;-76
2022/06/30 20:39:15;;;;;;;0.10;0.10;;;;;;;14.37;100.00;101331.16;10456213;28;20045;-76
2022/06/30 20:44:17;;;;;;;0.00;0.00;;;;;;;14.50;100.00;101340.03;10437599;28;20139;-76
2022/06/30 20:54:40;;;;;;;0.30;0.10;;;;;;;14.85;100.00;101351.00;10453856;28;20068;-76
2022/06/30 20:59:42;;;;;;;0.00;0.00;;;;;;;14.63;100.00;101390.38;10446218;28;20044;-76
2022/06/30 21:04:53;;;;;;;0.00;0.00;;;;;;;14.15;100.00;101473.28;10455731;28;20045;-76
2022/06/30 21:09:54;;;;;;;1.77;0.55;;;;;;;14.37;100.00;101375.22;10456696;28;20052;-77
2022/06/30 21:14:56;;;;;;;0.00;0.00;;;;;;;14.40;100.00;101388.25;10435371;28;20037;-76
2022/06/30 21:19:57;;;;;;;0.22;0.17;;;;;;;14.50;100.00;101400.50;10429455;28;20045;-76
2022/06/30 21:24:59;;;;;;;0.52;0.43;;;;;;;14.51;100.00;101412.63;10432486;28;20046;-76
2022/06/30 21:30:06;;;;;;;0.05;0.05;;;;;;;14.62;100.00;101415.41;10448078;28;20053;-77
2022/06/30 21:35:08;;;;;;;0.10;0.10;;;;;;;14.62;100.00;101419.72;10434498;28;20041;-76
2022/06/30 21:40:10;;;;;;;0.55;0.20;;;;;;;14.53;100.00;101442.06;10446444;28;20102;-76
2022/06/30 21:45:12;;;;;;;0.47;0.20;;;;;;;14.40;100.00;101445.28;10426940;28;20033;-76
2022/06/30 21:50:14;;;;;;;0.00;0.00;;;;;;;14.56;100.00;101436.91;10441357;28;20049;-76
2022/06/30 21:55:15;;;;;;;0.22;0.00;;;;;;;14.63;100.00;101411.13;10442030;28;20044;-76
2022/06/30 22:00:17;;;;;;;0.20;0.10;;;;;;;14.47;100.00;101416.03;10449116;28;20103;-76
2022/06/30 22:05:19;;;;;;;0.03;0.03;;;;;;;14.54;100.00;101433.44;10448590;28;20052;-76
2022/06/30 22:10:20;;;;;;;0.10;0.10;;;;;;;14.34;100.00;101451.22;10431542;28;20103;-76
2022/06/30 22:15:22;;;;;;;0.10;0.10;;;;;;;14.37;100.00;101473.72;10451438;28;20045;-75
2022/06/30 22:20:24;;;;;;;0.17;0.17;;;;;;;14.38;100.00;101465.09;10448967;28;20072;-77
2022/06/30 22:25:25;;;;;;;0.28;0.20;;;;;;;14.36;100.00;101492.69;10451172;28;20045;-76
2022/06/30 22:30:29;;;;;;;0.20;0.20;;;;;;;14.32;100.00;101504.72;10451053;28;20048;-76
2022/06/30 22:35:33;;;;;;;0.03;0.03;;;;;;;14.41;100.00;101491.06;10443676;28;20072;-76
2022/06/30 22:40:35;;;;;;;0.60;0.13;;;;;;;14.47;100.00;101475.66;10421142;28;20443;-76
2022/06/30 22:45:37;;;;;;;0.10;0.10;;;;;;;14.34;100.00;101487.50;10436313;28;20041;-76
2022/06/30 22:50:40;;;;;;;0.43;0.35;;;;;;;14.44;100.00;101470.41;10423866;28;20157;-76
2022/06/30 22:55:42;;;;;;;0.43;0.20;;;;;;;14.59;100.00;101486.25;10437101;28;20041;-76
2022/06/30 23:00:44;;;;;;;0.40;0.40;;;;;;;14.60;100.00;101482.81;10420612;28;20036;-76
2022/06/30 23:05:46;;;;;;;0.77;0.40;;;;;;;14.59;100.00;101473.28;10439434;28;20040;-77
2022/06/30 23:10:48;;;;;;;0.70;0.20;;;;;;;14.64;100.00;101488.03;10420124;28;20064;-76
2022/06/30 23:15:49;;;;;;;1.33;0.50;;;;;;;14.50;100.00;101499.03;10405502;28;20037;-76
2022/06/30 23:20:51;;;;;;;0.32;0.10;;;;;;;14.68;100.00;101487.31;10443479;28;20813;-76
2022/06/30 23:25:53;;;;;;;0.20;0.20;;;;;;;14.59;100.00;101483.66;10436286;28;20095;-76
2022/06/30 23:30:55;;;;;;;0.38;0.35;;;;;;;14.55;100.00;101514.69;10452314;28;20392;-76
2022/06/30 23:35:58;;;;;;;0.10;0.10;;;;;;;14.74;100.00;101515.94;10457816;28;20106;-76
2022/06/30 23:41:16;;;;;;;0.90;0.90;;;;;;;14.71;100.00;101515.88;10436205;28;20045;-76
2022/06/30 23:46:17;;;;;;;0.50;0.30;;;;;;;14.80;100.00;101521.22;10453353;28;20092;-76
2022/06/30 23:51:25;;;;;;;2.35;1.23;;;;;;;14.71;100.00;101523.66;10453443;28;20528;-77
2022/06/30 23:56:27;;;;;;;1.95;0.50;;;;;;;14.89;100.00;101526.59;10451911;28;20484;-77
